Flag for Spain

Past Weather in 37°22'47.1"N, 5°55'31.0"W, Spain — Yesterday and Last 2 Weeks

Currently: 88 °F. Sunny. (Weather station: Sevilla / San Pablo, Spain). See more current weather

Past Weather in 37°22'47.1"N, 5°55'31.0"W — Graph

°F

37°22'47.1"N, 5°55'31.0"W Temperature Yesterday

Maximum temperature yesterday: 90 °F (at 5:00 pm)
Minimum temperature yesterday: 63 °F (at 7:00 am)
Average temperature yesterday: 76 °F

High & Low Weather Summary for the Past Weeks

 TemperatureHumidityPressure
High102 °F (Jul 22, 6:30 pm)94% (Jul 30, 7:30 am)30.04 "Hg (Jul 30, 7:30 am)
Low63 °F (Aug 1, 7:00 am)8% (Jul 30, 5:00 pm)29.80 "Hg (Jul 23, 7:00 pm)
Average82 °F46%29.92 "Hg
* Reported Jul 18 1:00 pm — Aug 2 1:00 pm, 37°22'47.1"N, 5°55'31.0"W. Weather by CustomWeather, © 2021

Note: Actual official high and low records may vary slightly from our data, if they occured in-between our weather recording intervals... More about our weather records

37°22'47.1"N, 5°55'31.0"W Weather History for the Previous 24 Hours

Scroll right to see more
 ConditionsComfort  
Time TempWeatherWind HumidityBarometerVisibility
1:00 pm
Mon, Aug 2
81 °FSunny.2 mph45%29.95 "Hg10 mi
12:30 pm79 °FSunny.2 mph48%29.95 "Hg10 mi
12:00 pm79 °FSunny.2 mph48%29.95 "Hg10 mi
11:30 am77 °FSunny.1 mph51%29.95 "Hg10 mi
11:00 am77 °FSunny.2 mph51%29.95 "Hg10 mi
10:30 am77 °FSunny.1 mph51%29.95 "Hg10 mi
10:00 am75 °FSunny.1 mph50%29.95 "Hg10 mi
9:30 am70 °FSunny.1 mph60%29.95 "Hg10 mi
9:00 am70 °FSunny.No wind64%29.95 "Hg10 mi
8:30 am68 °FSunny.No wind69%29.95 "Hg10 mi
8:00 am64 °FSunny.No wind73%29.95 "Hg10 mi
7:30 am63 °FSunny.3 mph73%29.95 "Hg10 mi
7:00 am66 °FClear.2 mph68%29.95 "Hg10 mi
6:30 am66 °FClear.1 mph68%29.95 "Hg10 mi
6:00 am66 °FClear.2 mph68%29.95 "Hg10 mi
5:30 am66 °FClear.2 mph68%29.95 "Hg10 mi
5:00 am66 °FClear.No wind64%29.95 "Hg10 mi
4:30 am66 °FClear.2 mph64%29.95 "Hg10 mi
4:00 am68 °FClear.2 mph60%29.95 "Hg10 mi
3:30 am68 °FPassing clouds.3 mph60%29.95 "HgN/A
3:00 am68 °FClear.6 mph56%29.95 "Hg10 mi
1:30 am72 °FPassing clouds.7 mph53%29.95 "HgN/A
1:00 am70 °FPassing clouds.6 mph60%29.95 "HgN/A
12:30 am72 °FClear.2 mph57%29.95 "Hg10 mi
12:00 am73 °FClear.2 mph53%29.95 "Hg10 mi
11:30 pm
Sun, Aug 1
73 °FPassing clouds.6 mph50%29.95 "HgN/A
11:00 pm75 °FPassing clouds.5 mph47%29.95 "HgN/A
10:30 pm75 °FPassing clouds.5 mph47%29.95 "HgN/A
10:00 pm77 °FClear.3 mph44%29.95 "Hg10 mi
9:30 pm79 °FPassing clouds.7 mph45%29.92 "HgN/A
9:00 pm79 °FPassing clouds.9 mph42%29.92 "HgN/A
8:30 pm81 °FPassing clouds.14 mph34%29.92 "HgN/A
8:00 pm82 °FPassing clouds.14 mph32%29.92 "HgN/A
7:30 pm84 °FPassing clouds.15 mph29%29.92 "HgN/A
7:00 pm86 °FPassing clouds.15 mph27%29.92 "HgN/A
6:30 pm88 °FPassing clouds.13 mph25%29.92 "HgN/A
6:00 pm88 °FPassing clouds.8 mph22%29.92 "HgN/A
5:30 pm86 °FPassing clouds.8 mph24%29.95 "HgN/A
5:00 pm90 °FSunny.9 mph21%29.95 "Hg10 mi
4:30 pm88 °FSunny.6 mph21%29.95 "Hg10 mi
4:00 pm86 °FSunny.5 mph22%29.95 "Hg10 mi
3:30 pm86 °FSunny.5 mph22%29.98 "Hg10 mi
3:00 pm84 °FSunny.6 mph25%29.98 "Hg10 mi
2:30 pm82 °FSunny.7 mph28%29.98 "Hg10 mi
2:00 pm82 °FSunny.6 mph28%29.98 "Hg10 mi
Weather by CustomWeather, © 2021

See weather overview